»·PEaware :: N717TS KYKM-KPDX

N717TS :: KYKM-KPDX

FLIGHT INFORMATION

Flight Status: Arrived
Operator: Privately registered:
United States
More flights under this callsign
Pilot: Ty S. (2873)
Aircraft: BEECH AIRCRAFT BARON
(BE58)
More flights by this aircraft type
Origin: KYKM Yakima Air Term/Mcallister
United States
Destination: KPDX Portland Intl
United States
More flights between these airports :: More routes between these airports
Route: YKM V448 BTG
File this flight plan on PilotEdge
Remarks:
Altitude:
(Current/Filed)
16,000ft
Speed:
(Current/Filed)
180kts
Departed: 18-Sep-20 05:11 PM
Arrived: 18-Sep-20 06:00 PM
Distance/Time
Traveled:
103nm/0:49
Distance/Time
To Go:
Arrived

Flight Plot

Page will automatically refresh every two minutes.

Flight plan parsing failed; only flown route is shown


Map Options




Map Legend


Flown Route
Filed Route
Departure Airport
Arrival Airport
Navaid (VOR, NDB)
Fix

Horizontal Profiles

Position Reports

Time Latitude Longitude Heading Altitude Ground
Speed
18-Sep-20 17:01 46.572817 -120.552819 321 1091ft 0kts
18-Sep-20 17:02 46.572817 -120.552820 321 1091ft 0kts
18-Sep-20 17:02 46.572817 -120.552819 321 1091ft 0kts
18-Sep-20 17:03 46.572817 -120.552819 321 1091ft 0kts
18-Sep-20 17:05 46.572817 -120.552819 321 1091ft 0kts
18-Sep-20 17:05 46.572817 -120.552819 321 1091ft 0kts
18-Sep-20 17:06 46.572870 -120.552920 292 1091ft 4kts
18-Sep-20 17:07 46.571509 -120.550779 112 1086ft 23kts
18-Sep-20 17:08 46.568918 -120.540350 109 1066ft 24kts
18-Sep-20 17:09 46.566341 -120.531525 173 1054ft 8kts
18-Sep-20 17:10 46.568800 -120.544603 292 1110ft 119kts
18-Sep-20 17:11 46.592062 -120.554999 86 3215ft 141kts
18-Sep-20 17:12 46.585152 -120.496703 104 5175ft 153kts
18-Sep-20 17:13 46.572465 -120.438077 129 7037ft 155kts
18-Sep-20 17:14 46.549198 -120.469328 264 8646ft 147kts
18-Sep-20 17:15 46.540622 -120.530537 256 9768ft 174kts
18-Sep-20 17:16 46.526357 -120.591023 215 11120ft 141kts
18-Sep-20 17:17 46.500286 -120.634226 238 12444ft 150kts
18-Sep-20 17:18 46.480759 -120.688642 235 13664ft 154kts
18-Sep-20 17:19 46.460320 -120.744247 235 14685ft 157kts
18-Sep-20 17:20 46.439524 -120.800738 235 15562ft 160kts
18-Sep-20 17:21 46.417771 -120.859918 235 15941ft 177kts
18-Sep-20 17:22 46.393839 -120.924868 235 15949ft 185kts
18-Sep-20 17:23 46.369559 -120.990762 235 15948ft 186kts
18-Sep-20 17:24 46.345080 -121.057082 235 15971ft 185kts
18-Sep-20 17:25 46.320921 -121.122511 235 16055ft 183kts
18-Sep-20 17:26 46.296617 -121.188212 235 16061ft 186kts
18-Sep-20 17:27 46.272022 -121.254717 235 16056ft 188kts
18-Sep-20 17:28 46.247512 -121.320591 236 16071ft 184kts
18-Sep-20 17:29 46.223210 -121.386347 236 16064ft 185kts
18-Sep-20 17:30 46.198781 -121.452294 236 15979ft 188kts
18-Sep-20 17:31 46.174400 -121.517926 236 15974ft 191kts
18-Sep-20 17:32 46.149336 -121.585386 237 15985ft 191kts
18-Sep-20 17:33 46.124401 -121.652221 237 15981ft 188kts
18-Sep-20 17:34 46.102629 -121.719647 261 15995ft 193kts
18-Sep-20 17:35 46.075685 -121.781298 237 15970ft 187kts
18-Sep-20 17:36 46.051143 -121.847176 237 15994ft 187kts
18-Sep-20 17:37 46.026999 -121.913663 237 15981ft 186kts
18-Sep-20 17:38 46.002385 -121.979528 237 15984ft 187kts
18-Sep-20 17:39 45.977669 -122.045555 237 15710ft 188kts
18-Sep-20 17:40 45.951765 -122.111057 217 14709ft 185kts
18-Sep-20 17:41 45.920487 -122.160313 238 13732ft 173kts
18-Sep-20 17:42 45.896311 -122.220776 238 12747ft 175kts
18-Sep-20 17:43 45.873149 -122.283360 256 11743ft 178kts
18-Sep-20 17:44 45.861474 -122.353213 256 10729ft 186kts
18-Sep-20 17:45 45.847939 -122.428721 257 9731ft 197kts
18-Sep-20 17:46 45.833619 -122.504483 257 8753ft 195kts
18-Sep-20 17:47 45.819472 -122.579705 256 7731ft 194kts
18-Sep-20 17:48 45.805784 -122.654522 256 6724ft 192kts
18-Sep-20 17:49 45.792716 -122.728395 256 5723ft 190kts
18-Sep-20 17:50 45.780023 -122.801732 256 4731ft 190kts
18-Sep-20 17:51 45.767670 -122.875296 256 3732ft 188kts
18-Sep-20 17:52 45.737181 -122.916213 149 2917ft 175kts
18-Sep-20 17:53 45.702002 -122.867594 121 2914ft 186kts
18-Sep-20 17:54 45.676080 -122.803064 120 2965ft 191kts
18-Sep-20 17:55 45.650200 -122.740727 120 2319ft 175kts
18-Sep-20 17:56 45.630493 -122.690052 116 1444ft 126kts
18-Sep-20 17:57 45.614971 -122.645912 122 852ft 124kts
18-Sep-20 17:58 45.597995 -122.603832 118 196ft 116kts
18-Sep-20 17:59 45.589227 -122.581951 172 35ft 16kts
18-Sep-20 18:00 45.586430 -122.577436 118 36ft 13kts
18-Sep-20 18:01 45.585645 -122.577935 335 35ft 0kts
18-Sep-20 18:02 45.585645 -122.577935 335 35ft 0kts

Navigation Log

Ident Type
Flight plan parsing failed, navigation log unavailable